createdAt,value
2018-07-14T00:00:05.083Z,94.21
2018-07-14T00:01:13.944Z,94.02
2018-07-14T00:02:22.805Z,94.02
2018-07-14T00:03:31.665Z,93.73
2018-07-14T00:04:40.528Z,94.02
2018-07-14T00:05:49.736Z,93.54
2018-07-14T00:06:58.597Z,94.02
2018-07-14T00:08:07.459Z,93.35
2018-07-14T00:09:16.318Z,93.63
2018-07-14T00:10:25.180Z,93.06
2018-07-14T00:11:34.320Z,93.16
2018-07-14T00:12:43.180Z,93.26
2018-07-14T00:13:52.040Z,93.35
2018-07-14T00:15:01.189Z,93.16
2018-07-14T00:16:10.331Z,93.35
2018-07-14T00:17:19.543Z,93.16
2018-07-14T00:18:28.678Z,93.26
2018-07-14T00:19:37.539Z,93.63
2018-07-14T00:20:46.401Z,93.16
2018-07-14T00:21:55.260Z,93.4
2018-07-14T00:23:04.124Z,92.54
2018-07-14T00:24:13.266Z,92.49
2018-07-14T00:25:22.753Z,92.68
2018-07-14T00:26:31.615Z,92.1
2018-07-14T00:27:40.476Z,92.54
2018-07-14T00:28:49.620Z,91.82
2018-07-14T00:29:58.482Z,92.44
2018-07-14T00:31:07.342Z,92.92
2018-07-14T00:32:16.201Z,91.77
2018-07-14T00:33:25.339Z,92.25
2018-07-14T00:34:34.478Z,92.54
2018-07-14T00:35:43.340Z,92.35
2018-07-14T00:36:52.479Z,92.06
2018-07-14T00:38:01.338Z,92.06
2018-07-14T00:39:10.197Z,91.19
2018-07-14T00:40:19.203Z,91.67
2018-07-14T00:41:28.065Z,90.91
2018-07-14T00:42:36.926Z,91.1
2018-07-14T00:43:45.787Z,91.1
2018-07-14T00:44:54.647Z,90.62
2018-07-14T00:46:03.867Z,91
2018-07-14T00:47:12.729Z,91.19
2018-07-14T00:48:21.867Z,90.09
2018-07-14T00:49:30.729Z,90.09
2018-07-14T00:50:39.867Z,89.62
2018-07-14T00:51:48.726Z,89.33
2018-07-14T00:52:57.584Z,89.04
2018-07-14T00:54:06.728Z,89.14
2018-07-14T00:55:15.587Z,88.37
2018-07-14T00:56:24.725Z,88.76
2018-07-14T00:57:33.733Z,88.09
2018-07-14T00:58:42.645Z,87.9
2018-07-14T00:59:51.508Z,87.61
2018-07-14T01:01:00.365Z,88.28
2018-07-14T01:02:09.225Z,87.61
2018-07-14T01:03:18.085Z,87.8
2018-07-14T01:04:26.946Z,87.13
2018-07-14T01:05:35.806Z,86.74
2018-07-14T01:06:44.667Z,86.65
2018-07-14T01:07:53.534Z,86.08
2018-07-14T01:09:02.814Z,85.88
2018-07-14T01:10:11.676Z,85.69
2018-07-14T01:11:20.537Z,85.41
2018-07-14T01:12:29.398Z,85.31
2018-07-14T01:13:38.533Z,85.41
2018-07-14T01:14:47.824Z,85.12
2018-07-14T01:15:56.688Z,85.5
2018-07-14T01:17:05.547Z,85.21
2018-07-14T01:18:14.407Z,84.55
2018-07-14T01:19:23.267Z,84.83
2018-07-14T01:20:32.128Z,84.83
2018-07-14T01:21:40.999Z,84.92
2018-07-14T01:22:50.123Z,84.64
2018-07-14T01:23:58.981Z,84.35
2018-07-14T01:25:07.842Z,84.92
2018-07-14T01:26:16.702Z,84.06
2018-07-14T01:27:25.566Z,83.87
2018-07-14T01:28:34.703Z,84.16
2018-07-14T01:29:43.561Z,84.55
2018-07-14T01:30:52.698Z,84.45
2018-07-14T01:32:01.559Z,83.59
2018-07-14T01:33:10.694Z,83.97
2018-07-14T01:34:19.553Z,83.39
2018-07-14T01:35:28.412Z,83.11
2018-07-14T01:36:37.273Z,83.01
2018-07-14T01:37:46.232Z,83.39
2018-07-14T01:38:55.092Z,83.01
2018-07-14T01:40:03.950Z,83.11
2018-07-14T01:41:12.813Z,83.11
2018-07-14T01:42:21.948Z,82.73
2018-07-14T01:43:30.809Z,83.11
2018-07-14T01:44:39.956Z,82.63
2018-07-14T01:45:48.815Z,82.63
2018-07-14T01:46:57.677Z,82.82
2018-07-14T01:48:06.538Z,82.82
2018-07-14T01:49:15.395Z,82.53
2018-07-14T01:50:24.260Z,82.63
2018-07-14T01:51:33.119Z,83.11
2018-07-14T01:52:41.979Z,82.92
2018-07-14T01:53:50.839Z,82.73
2018-07-14T01:54:59.850Z,82.92
2018-07-14T01:56:08.717Z,82.63
2018-07-14T01:57:17.573Z,82.73
2018-07-14T01:58:26.438Z,82.53
2018-07-14T01:59:35.332Z,83.11
2018-07-14T02:00:44.788Z,83.49
2018-07-14T02:01:53.939Z,83.78
2018-07-14T02:03:02.798Z,83.3
2018-07-14T02:04:11.660Z,83.59
2018-07-14T02:05:20.522Z,83.78
2018-07-14T02:06:29.388Z,83.68
2018-07-14T02:07:38.524Z,83.11
2018-07-14T02:08:47.388Z,83.49
2018-07-14T02:09:56.799Z,84.06
2018-07-14T02:11:05.939Z,83.49
2018-07-14T02:12:14.799Z,85.02
2018-07-14T02:13:23.655Z,83.97
2018-07-14T02:14:32.519Z,84.16
2018-07-14T02:15:41.657Z,84.26
2018-07-14T02:16:50.523Z,83.39
2018-07-14T02:17:59.536Z,83.97
2018-07-14T02:19:08.676Z,83.59
2018-07-14T02:20:17.536Z,83.49
2018-07-14T02:21:26.397Z,83.87
2018-07-14T02:22:35.261Z,83.97
2018-07-14T02:23:44.546Z,84.16
2018-07-14T02:24:53.685Z,83.68
2018-07-14T02:26:02.546Z,84.16
2018-07-14T02:27:11.406Z,83.49
2018-07-14T02:28:20.266Z,83.59
2018-07-14T02:29:29.225Z,83.97
2018-07-14T02:30:38.085Z,83.59
2018-07-14T02:31:47.225Z,83.49
2018-07-14T02:32:56.381Z,83.06
2018-07-14T02:34:05.520Z,84.12
2018-07-14T02:35:14.392Z,84.26
2018-07-14T02:36:23.538Z,83.59
2018-07-14T02:37:32.674Z,83.78
2018-07-14T02:38:41.806Z,82.92
2018-07-14T02:39:50.680Z,83.11
2018-07-14T02:41:00.103Z,82.2
2018-07-14T02:42:09.524Z,82.53
2018-07-14T02:43:18.680Z,82.01
2018-07-14T02:44:27.819Z,82.87
2018-07-14T02:45:36.960Z,82.3
2018-07-14T02:46:46.174Z,81.92
2018-07-14T02:47:55.588Z,82.3
2018-07-14T02:49:04.725Z,81.54
2018-07-14T02:50:13.862Z,81.15
2018-07-14T02:51:22.999Z,81.25
2018-07-14T02:52:31.965Z,80.77
2018-07-14T02:53:40.832Z,81.15
2018-07-14T02:54:49.695Z,80.58
2018-07-14T02:55:58.843Z,80.87
2018-07-14T02:57:07.707Z,80.19
2018-07-14T02:58:16.717Z,80.1
2018-07-14T02:59:25.866Z,80.77
2018-07-14T03:00:34.738Z,80.29
2018-07-14T03:01:43.589Z,80.29
2018-07-14T03:02:52.451Z,80.29
2018-07-14T03:04:01.465Z,80.19
2018-07-14T03:05:10.606Z,80.38
2018-07-14T03:06:20.020Z,80.29
2018-07-14T03:07:29.436Z,80.29
2018-07-14T03:08:38.867Z,80.67
2018-07-14T03:09:48.285Z,80.29
2018-07-14T03:10:57.424Z,79.91
2018-07-14T03:12:06.287Z,80.38
2018-07-14T03:13:15.424Z,79.43
2018-07-14T03:14:24.290Z,79.72
2018-07-14T03:15:33.435Z,79.81
2018-07-14T03:16:42.593Z,79.81
2018-07-14T03:17:51.736Z,79.91
2018-07-14T03:19:00.875Z,80.1
2018-07-14T03:20:09.734Z,80.29
2018-07-14T03:21:19.027Z,79.91
2018-07-14T03:22:28.170Z,79.72
2018-07-14T03:23:37.592Z,79.81
2018-07-14T03:24:46.455Z,80.38
2018-07-14T03:25:55.596Z,80.19
2018-07-14T03:27:04.812Z,80.29
2018-07-14T03:28:13.956Z,79.91
2018-07-14T03:29:22.809Z,79.52
2018-07-14T03:30:31.668Z,79.52
2018-07-14T03:31:40.820Z,79.43
2018-07-14T03:32:50.305Z,80.48
2018-07-14T03:33:59.164Z,79.81
2018-07-14T03:35:08.022Z,79.81
2018-07-14T03:36:16.882Z,79.33
2018-07-14T03:37:25.743Z,79.81
2018-07-14T03:38:35.035Z,79.91
2018-07-14T03:39:44.171Z,80.19
2018-07-14T03:40:53.033Z,80
2018-07-14T03:42:01.977Z,79.91
2018-07-14T03:43:11.196Z,80.58
2018-07-14T03:44:20.055Z,79.62
2018-07-14T03:46:37.773Z,79.91
2018-07-14T03:47:46.912Z,80.19
2018-07-14T03:48:55.775Z,80.19
2018-07-14T03:50:04.911Z,80.19
2018-07-14T03:51:13.771Z,80.38
2018-07-14T03:52:22.912Z,80.33
2018-07-14T03:53:31.772Z,80.48
2018-07-14T03:54:40.631Z,80.96
2018-07-14T03:55:49.495Z,80.52
2018-07-14T03:56:58.408Z,80.62
2018-07-14T03:58:07.216Z,80.14
2018-07-14T03:59:16.078Z,80.48
2018-07-14T04:00:24.935Z,80.19
2018-07-14T04:01:33.795Z,80.29
2018-07-14T04:02:42.658Z,80.29
2018-07-14T04:03:51.518Z,80.48
2018-07-14T04:05:00.381Z,80.62
2018-07-14T04:06:09.242Z,81.2
2018-07-14T04:07:18.250Z,81
2018-07-14T04:08:27.110Z,80.9
2018-07-14T04:09:35.970Z,81.38
2018-07-14T04:10:44.830Z,81.29
2018-07-14T04:11:53.692Z,81.38
2018-07-14T04:13:02.552Z,81.38
2018-07-14T04:14:11.412Z,80.9
2018-07-14T04:15:20.549Z,81.48
2018-07-14T04:16:29.409Z,80.81
2018-07-14T04:17:38.272Z,80.9
2018-07-14T04:18:47.407Z,81.05
2018-07-14T04:19:56.269Z,80.58
2018-07-14T04:21:05.955Z,80.24
2018-07-14T04:22:15.090Z,80.43
2018-07-14T04:23:23.948Z,80.9
2018-07-14T04:24:32.910Z,80.24
2018-07-14T04:25:41.772Z,80.29
2018-07-14T04:26:50.632Z,80.77
2018-07-14T04:27:59.493Z,80.33
2018-07-14T04:29:08.354Z,81.1
2018-07-14T04:30:17.500Z,80.81
2018-07-14T04:31:26.637Z,80.9
2018-07-14T04:32:35.497Z,80.9
2018-07-14T04:33:44.356Z,80.81
2018-07-14T04:34:53.494Z,80.81
2018-07-14T04:36:02.355Z,80.81
2018-07-14T04:37:11.491Z,80.71
2018-07-14T04:38:20.353Z,80.62
2018-07-14T04:39:29.219Z,80.62
2018-07-14T04:40:38.077Z,80.52
2018-07-14T04:41:47.095Z,80.1
2018-07-14T04:42:55.954Z,80.48
2018-07-14T04:44:05.093Z,80.43
2018-07-14T04:45:13.950Z,80.43
2018-07-14T04:46:22.809Z,80.62
2018-07-14T04:47:31.671Z,80.52
2018-07-14T04:48:41.087Z,80.33
2018-07-14T04:49:49.946Z,80.43
2018-07-14T04:50:58.808Z,80.43
2018-07-14T04:52:07.670Z,80.71
2018-07-14T04:53:16.596Z,80.43
2018-07-14T04:54:25.821Z,80.43
2018-07-14T04:55:34.682Z,80.62
2018-07-14T04:56:43.543Z,80.52
2018-07-14T04:57:52.403Z,80.14
2018-07-14T04:59:01.415Z,80.24
2018-07-14T05:00:10.279Z,81.29
2018-07-14T05:01:19.415Z,80.62
2018-07-14T05:02:28.274Z,80.27
2018-07-14T05:03:37.138Z,80.43
2018-07-14T05:04:45.994Z,80.14
2018-07-14T05:05:54.856Z,80.66
2018-07-14T05:07:03.718Z,80.43
2018-07-14T05:08:12.859Z,80.52
2018-07-14T05:09:21.715Z,80.14
2018-07-14T05:10:31.012Z,80.33
2018-07-14T05:11:40.148Z,80.71
2018-07-14T05:12:49.007Z,81.04
2018-07-14T05:13:57.869Z,80.66
2018-07-14T05:15:07.010Z,80.94
2018-07-14T05:16:16.431Z,80.85
2018-07-14T05:17:25.293Z,80.66
2018-07-14T05:18:34.153Z,81.04
2018-07-14T05:19:43.015Z,81.13
2018-07-14T05:20:51.875Z,81.13
2018-07-14T05:22:00.738Z,80.66
2018-07-14T05:23:09.604Z,81.52
2018-07-14T05:24:19.027Z,81.43
2018-07-14T05:25:27.883Z,81.43
2018-07-14T05:26:36.743Z,80.66
2018-07-14T05:27:45.880Z,81.23
2018-07-14T05:28:54.740Z,81.52
2018-07-14T05:30:03.601Z,81.33
2018-07-14T05:31:12.462Z,81.23
2018-07-14T05:32:21.324Z,81.33
2018-07-14T05:33:30.185Z,81.52
2018-07-14T05:34:39.336Z,81.33
2018-07-14T05:35:48.473Z,81.43
2018-07-14T05:36:57.332Z,81.23
2018-07-14T05:38:06.214Z,81.66
2018-07-14T05:39:15.482Z,82.23
2018-07-14T05:40:24.345Z,81.66
2018-07-14T05:41:33.207Z,82.14
2018-07-14T05:42:42.067Z,82.14
2018-07-14T05:43:50.929Z,82.14
2018-07-14T05:44:59.896Z,82.04
2018-07-14T05:46:09.030Z,81.66
2018-07-14T05:47:17.890Z,82.14
2018-07-14T05:48:26.753Z,82.04
2018-07-14T05:49:35.614Z,82.71
2018-07-14T05:50:44.477Z,81.85
2018-07-14T05:51:53.336Z,82.81
2018-07-14T05:53:02.542Z,82.42
2018-07-14T05:54:11.403Z,83.09
2018-07-14T05:55:20.267Z,82.81
2018-07-14T05:56:29.481Z,83.09
2018-07-14T05:57:38.343Z,82.81
2018-07-14T05:58:47.206Z,83
2018-07-14T05:59:56.062Z,83.09
2018-07-14T06:01:04.927Z,82.71
2018-07-14T06:02:13.793Z,83.09
2018-07-14T06:03:22.657Z,83.09
2018-07-14T06:04:31.524Z,83.04
2018-07-14T06:05:40.656Z,82.71
2018-07-14T06:06:49.798Z,83.14
2018-07-14T06:07:59.009Z,83.48
2018-07-14T06:09:07.873Z,83.04
2018-07-14T06:10:16.734Z,83.58
2018-07-14T06:11:25.595Z,83
2018-07-14T06:12:34.459Z,83.38
2018-07-14T06:13:43.468Z,83.61
2018-07-14T06:14:52.331Z,83.52
2018-07-14T06:16:01.469Z,83.33
2018-07-14T06:17:10.371Z,83.52
2018-07-14T06:18:19.523Z,83.61
2018-07-14T06:19:28.458Z,83.91
2018-07-14T06:20:38.290Z,84.09
2018-07-14T06:21:47.495Z,83.71
2018-07-14T06:22:56.356Z,83.81
2018-07-14T06:24:05.216Z,83.81
2018-07-14T06:25:14.179Z,83.91
2018-07-14T06:26:23.876Z,83.61
2018-07-14T06:27:33.020Z,83.81
2018-07-14T06:28:41.880Z,83.65
2018-07-14T06:29:50.744Z,83.61
2018-07-14T06:30:59.608Z,83.91
2018-07-14T06:32:08.514Z,84.33
2018-07-14T06:33:17.333Z,84.33
2018-07-14T06:34:26.195Z,84.23
2018-07-14T06:35:35.057Z,84.61
2018-07-14T06:36:43.919Z,84.61
2018-07-14T06:37:52.781Z,84.52
2018-07-14T06:39:01.644Z,84.81
2018-07-14T06:40:10.783Z,84.71
2018-07-14T06:41:19.647Z,85.1
2018-07-14T06:42:28.510Z,85.19
2018-07-14T06:43:37.370Z,85.96
2018-07-14T06:44:46.338Z,85.96
2018-07-14T06:45:55.979Z,86.05
2018-07-14T06:47:04.841Z,85.96
2018-07-14T06:48:14.054Z,86.05
2018-07-14T06:49:22.918Z,86.29
2018-07-14T06:50:31.780Z,86.48
2018-07-14T06:51:40.919Z,86.87
2018-07-14T06:52:49.781Z,86.68
2018-07-14T06:53:58.643Z,86.77
2018-07-14T06:55:07.508Z,87.15
2018-07-14T06:56:16.369Z,86.87
2018-07-14T06:57:25.785Z,87.05
2018-07-14T06:58:34.647Z,87.15
2018-07-14T06:59:43.759Z,87.73
2018-07-14T07:00:52.625Z,88.4
2018-07-14T07:02:01.490Z,87.63
2018-07-14T07:03:10.350Z,87.05
2018-07-14T07:04:19.908Z,87.82
2018-07-14T07:05:29.119Z,88.4
2018-07-14T07:06:37.979Z,88.11
2018-07-14T07:07:46.842Z,87.82
2018-07-14T07:08:55.705Z,88.31
2018-07-14T07:10:04.845Z,88.59
2018-07-14T07:11:13.714Z,88.31
2018-07-14T07:12:22.571Z,88.21
2018-07-14T07:13:31.710Z,88.49
2018-07-14T07:14:40.878Z,88.4
2018-07-14T07:15:49.741Z,88.4
2018-07-14T07:16:58.704Z,88.73
2018-07-14T07:18:07.568Z,88.45
2018-07-14T07:19:16.431Z,89.12
2018-07-14T07:20:25.293Z,89.31
2018-07-14T07:21:34.169Z,89.02
2018-07-14T07:22:43.314Z,88.45
2018-07-14T07:23:52.729Z,88.73
2018-07-14T07:25:01.869Z,88.64
2018-07-14T07:26:10.731Z,89.31
2018-07-14T07:27:19.595Z,89.22
2018-07-14T07:28:28.608Z,89.12
2018-07-14T07:29:37.470Z,89.02
2018-07-14T07:30:46.333Z,89.31
2018-07-14T07:31:55.196Z,89.22
2018-07-14T07:33:04.059Z,89.12
2018-07-14T07:34:12.921Z,88.83
2018-07-14T07:35:22.340Z,88.93
2018-07-14T07:36:31.202Z,89.12
2018-07-14T07:37:40.067Z,89.22
2018-07-14T07:38:49.206Z,89.22
2018-07-14T07:39:58.072Z,89.4
2018-07-14T07:41:06.935Z,89.4
2018-07-14T07:42:15.856Z,89.22
2018-07-14T07:43:24.774Z,89.31
2018-07-14T07:44:33.929Z,89.31
2018-07-14T07:45:42.945Z,89.69
2018-07-14T07:46:52.083Z,89.79
2018-07-14T07:48:00.945Z,89.36
2018-07-14T07:49:09.808Z,89.45
2018-07-14T07:50:18.675Z,89.64
2018-07-14T07:51:27.818Z,89.36
2018-07-14T07:52:36.686Z,88.78
2018-07-14T07:53:45.549Z,88.97
2018-07-14T07:54:54.410Z,89.45
2018-07-14T07:56:03.274Z,88.87
2018-07-14T07:57:12.500Z,89.26
2018-07-14T07:58:21.640Z,89.36
2018-07-14T07:59:30.503Z,88.78
2018-07-14T08:00:39.650Z,89.45
2018-07-14T08:01:48.511Z,89.54
2018-07-14T08:02:57.530Z,88.97
2018-07-14T08:04:06.390Z,88.87
2018-07-14T08:05:15.251Z,88.68
2018-07-14T08:06:24.114Z,88.59
2018-07-14T08:07:33.029Z,88.68
2018-07-14T08:08:42.863Z,89.07
2018-07-14T08:09:52.159Z,89.26
2018-07-14T08:11:01.023Z,89.16
2018-07-14T08:12:09.886Z,89.26
2018-07-14T08:13:18.752Z,89.31
2018-07-14T08:14:27.999Z,89.12
2018-07-14T08:15:36.862Z,89.12
2018-07-14T08:16:45.727Z,89.26
2018-07-14T08:17:55.147Z,89.22
2018-07-14T08:19:04.011Z,89.6
2018-07-14T08:20:12.974Z,90.03
2018-07-14T08:21:22.120Z,89.6
2018-07-14T08:22:30.983Z,89.64
2018-07-14T08:23:39.845Z,89.31
2018-07-14T08:24:48.708Z,89.5
2018-07-14T08:25:57.569Z,89.64
2018-07-14T08:27:06.434Z,89.93
2018-07-14T08:28:15.298Z,89.74
2018-07-14T08:29:24.163Z,90.12
2018-07-14T08:30:33.036Z,89.36
2018-07-14T08:31:42.001Z,89.26
2018-07-14T08:32:50.864Z,88.59
2018-07-14T08:34:00.001Z,88.97
2018-07-14T08:35:08.865Z,88.78
2018-07-14T08:36:17.730Z,88.97
2018-07-14T08:37:26.595Z,88.68
2018-07-14T08:38:35.734Z,88.87
2018-07-14T08:39:44.876Z,88.87
2018-07-14T08:40:53.741Z,87.72
2018-07-14T08:42:02.608Z,88.3
2018-07-14T08:43:11.474Z,87.82
2018-07-14T08:44:20.341Z,88.78
2018-07-14T08:45:29.200Z,88.15
2018-07-14T08:46:38.064Z,87.92
2018-07-14T08:47:46.925Z,88.78
2018-07-14T08:48:55.938Z,88.49
2018-07-14T08:50:04.803Z,88.92
2018-07-14T08:51:14.379Z,88.15
2018-07-14T08:52:23.535Z,87.67
2018-07-14T08:53:32.395Z,87.57
2018-07-14T08:54:41.261Z,88.34
2018-07-14T08:55:50.395Z,86.61
2018-07-14T08:56:59.260Z,87.48
2018-07-14T08:58:08.134Z,87.92
2018-07-14T08:59:17.998Z,87.96
2018-07-14T09:00:26.861Z,87.76
2018-07-14T09:01:35.725Z,88.24
2018-07-14T09:02:44.593Z,88.15
2018-07-14T09:03:53.452Z,87.48
2018-07-14T09:05:02.597Z,86.56
2018-07-14T09:06:11.612Z,86.18
2018-07-14T09:07:21.031Z,85.69
2018-07-14T09:08:29.894Z,86.27
2018-07-14T09:09:38.757Z,86.22
2018-07-14T09:10:47.621Z,85.16
2018-07-14T09:11:56.485Z,84.77
2018-07-14T09:13:05.900Z,84.67
2018-07-14T09:14:14.765Z,83.62
2018-07-14T09:15:23.904Z,82.75
2018-07-14T09:16:32.827Z,83.14
2018-07-14T09:17:42.078Z,83.23
2018-07-14T09:18:50.940Z,84.48
2018-07-14T09:19:59.805Z,84.58
2018-07-14T09:21:08.964Z,85.06
2018-07-14T09:22:17.826Z,83.81
2018-07-14T09:23:26.970Z,83.52
2018-07-14T09:24:35.846Z,84.19
2018-07-14T09:25:44.993Z,83.91
2018-07-14T09:26:54.136Z,83.62
2018-07-14T09:28:02.996Z,83.08
2018-07-14T09:29:12.009Z,83.18
2018-07-14T09:30:21.156Z,82.37
2018-07-14T09:31:30.021Z,82.65
2018-07-14T09:32:39.314Z,82.85
2018-07-14T09:33:48.116Z,83.37
2018-07-14T09:34:56.980Z,83.33
2018-07-14T09:36:06.406Z,82.85
2018-07-14T09:37:15.319Z,83.04
2018-07-14T09:38:24.189Z,82.75
2018-07-14T09:39:33.044Z,82.85
2018-07-14T09:40:42.261Z,83.52
2018-07-14T09:41:51.123Z,85.35
2018-07-14T09:42:59.985Z,83.62
2018-07-14T09:44:08.909Z,83.91
2018-07-14T09:45:18.353Z,85.16
2018-07-14T09:46:27.370Z,84.48
2018-07-14T09:47:36.243Z,84.48
2018-07-14T09:48:45.099Z,82.37
2018-07-14T09:49:54.243Z,82.37
2018-07-14T09:51:03.105Z,82.75
2018-07-14T09:52:11.971Z,82.46
2018-07-14T09:53:20.834Z,81.88
2018-07-14T09:54:29.697Z,80.73
2018-07-14T09:55:38.837Z,80.73
2018-07-14T09:56:47.701Z,81.21
2018-07-14T09:57:56.565Z,80.87
2018-07-14T09:59:05.428Z,81.25
2018-07-14T10:00:14.296Z,81.93
2018-07-14T10:01:23.160Z,79.81
2018-07-14T10:02:32.025Z,81.63
2018-07-14T10:03:41.039Z,81.73
2018-07-14T10:04:49.905Z,82.06
2018-07-14T10:05:58.780Z,79.17
2018-07-14T10:07:08.670Z,80.14
2018-07-14T10:08:17.532Z,81.58
2018-07-14T10:09:26.396Z,81.58
2018-07-14T10:10:35.259Z,81.58
2018-07-14T10:11:44.125Z,79.94
2018-07-14T10:12:53.264Z,79.94
2018-07-14T10:14:02.137Z,80.62
2018-07-14T10:15:11.427Z,79.85
2018-07-14T10:16:20.577Z,80.58
2018-07-14T10:17:29.539Z,80.19
2018-07-14T10:18:38.305Z,81.06
2018-07-14T10:19:47.725Z,80.58
2018-07-14T10:20:56.591Z,80.43
2018-07-14T10:22:05.457Z,80.14
2018-07-14T10:23:14.320Z,80.23
2018-07-14T10:24:23.460Z,79.08
2018-07-14T10:25:32.379Z,78.92
2018-07-14T10:26:41.841Z,79.21
2018-07-14T10:27:50.706Z,78.63
2018-07-14T10:28:59.652Z,77.58
2018-07-14T10:30:08.444Z,79.08
2018-07-14T10:31:17.863Z,77.83
2018-07-14T10:32:26.728Z,79.08
2018-07-14T10:33:35.671Z,79.17
2018-07-14T10:34:44.741Z,78.15
2018-07-14T10:35:53.604Z,78.44
2018-07-14T10:37:02.753Z,78.44
2018-07-14T10:38:11.716Z,78.25
2018-07-14T10:39:20.581Z,78.34
2018-07-14T10:40:29.446Z,78.06
2018-07-14T10:41:38.311Z,79.02
2018-07-14T10:42:47.177Z,78.83
2018-07-14T10:43:56.142Z,76.61
2018-07-14T10:45:05.009Z,78.15
2018-07-14T10:46:13.876Z,77.58
2018-07-14T10:47:22.740Z,77.58
2018-07-14T10:48:31.607Z,77.86
2018-07-14T10:49:40.623Z,78.34
2018-07-14T10:50:49.491Z,76.71
2018-07-14T10:51:58.354Z,76.71
2018-07-14T10:53:07.503Z,78.15
2018-07-14T10:54:16.647Z,78.06
2018-07-14T10:55:25.518Z,78.73
2018-07-14T10:56:34.383Z,77.9
2018-07-14T10:57:43.248Z,77.71
2018-07-14T10:58:52.114Z,77.23
2018-07-14T11:00:00.983Z,76.55
2018-07-14T11:01:09.847Z,76.93
2018-07-14T11:02:18.715Z,77.67
2018-07-14T11:03:27.859Z,78.25
2018-07-14T11:04:37.000Z,78.77
2018-07-14T11:05:45.866Z,79.06
2018-07-14T11:06:55.083Z,79.93
2018-07-14T11:08:03.949Z,80.31
2018-07-14T11:09:12.813Z,80.22
2018-07-14T11:10:21.680Z,80.02
2018-07-14T11:11:30.545Z,79.93
2018-07-14T11:12:39.411Z,79.93
2018-07-14T11:13:48.278Z,79.93
2018-07-14T11:14:57.145Z,80.22
2018-07-14T11:16:06.012Z,80.12
2018-07-14T11:17:14.876Z,79.35
2018-07-14T11:18:24.131Z,80.06
2018-07-14T11:19:32.998Z,78.81
2018-07-14T11:20:41.865Z,78.61
2018-07-14T11:21:51.007Z,78.61
2018-07-14T11:22:59.876Z,78.42
2018-07-14T11:24:08.894Z,79.1
2018-07-14T11:25:18.090Z,79
2018-07-14T11:26:26.958Z,77.55
2018-07-14T11:27:36.098Z,77.94
2018-07-14T11:28:44.964Z,78.61
2018-07-14T11:29:54.107Z,78.13
2018-07-14T11:31:02.975Z,78.13
2018-07-14T11:32:11.840Z,78.23
2018-07-14T11:33:20.707Z,78.52
2018-07-14T11:34:29.937Z,78.42
2018-07-14T11:35:39.207Z,77.94
2018-07-14T11:36:48.077Z,77.84
2018-07-14T11:37:57.506Z,77.55
2018-07-14T11:39:06.380Z,77.46
2018-07-14T11:40:15.233Z,77.59
2018-07-14T11:41:25.077Z,78.27
2018-07-14T11:42:33.943Z,78.61
2018-07-14T11:43:42.810Z,79.04
2018-07-14T11:44:51.677Z,78.46
2018-07-14T11:46:00.542Z,78.17
2018-07-14T11:47:09.758Z,77.88
2018-07-14T11:48:19.180Z,77.88
2018-07-14T11:49:28.046Z,77.01
2018-07-14T11:50:36.913Z,77.01
2018-07-14T11:51:45.783Z,77.59
2018-07-14T11:52:55.274Z,77.69
2018-07-14T11:54:04.445Z,78.36
2018-07-14T11:55:13.319Z,78.31
2018-07-14T11:56:22.180Z,76.76
2018-07-14T11:57:31.602Z,76.67
2018-07-14T11:58:40.619Z,75.41
2018-07-14T11:59:49.493Z,75.93
2018-07-14T12:00:58.360Z,75.16
2018-07-14T12:02:07.319Z,75.64
2018-07-14T12:03:16.377Z,75.64
2018-07-14T12:04:25.415Z,75.45
2018-07-14T12:05:34.262Z,76.03
2018-07-14T12:06:43.416Z,75.74
2018-07-14T12:07:52.285Z,75.99
2018-07-14T12:09:01.427Z,74.64
2018-07-14T12:10:10.298Z,73.77
2018-07-14T12:11:19.163Z,75.02
2018-07-14T12:12:28.030Z,74.16
2018-07-14T12:13:36.908Z,74.93
2018-07-14T12:14:46.058Z,73.71
2018-07-14T12:15:55.279Z,73.71
2018-07-14T12:17:04.148Z,71.33
2018-07-14T12:18:13.018Z,71.14
2018-07-14T12:19:21.884Z,72.97
2018-07-14T12:20:31.028Z,72.39
2018-07-14T12:21:40.049Z,71.23
2018-07-14T12:22:48.923Z,70.94
2018-07-14T12:23:58.067Z,71.14
2018-07-14T12:25:06.939Z,72.2
2018-07-14T12:26:15.812Z,70.36
2018-07-14T12:27:25.115Z,71.52
2018-07-14T12:28:34.270Z,71.62
2018-07-14T12:29:43.135Z,71.23
2018-07-14T12:30:52.005Z,69.98
2018-07-14T12:32:01.152Z,71.17
2018-07-14T12:33:10.172Z,70.98
2018-07-14T12:34:19.044Z,68.37
2018-07-14T12:35:28.192Z,67.33
2018-07-14T12:36:37.085Z,69.46
2018-07-14T12:37:46.321Z,67.18
2018-07-14T12:38:55.474Z,66.3
2018-07-14T12:40:04.344Z,67.6
2018-07-14T12:41:13.219Z,67.11
2018-07-14T12:42:22.090Z,67.02
2018-07-14T12:43:31.044Z,67.88
2018-07-14T12:44:40.110Z,68.08
2018-07-14T12:45:48.981Z,67.6
2018-07-14T12:46:57.855Z,68.85
2018-07-14T12:48:07.022Z,69.53
2018-07-14T12:49:16.173Z,68.18
2018-07-14T12:50:25.198Z,67.88
2018-07-14T12:51:34.082Z,67.4
2018-07-14T12:52:42.956Z,67.98
2018-07-14T12:53:51.886Z,67.02
2018-07-14T12:55:00.979Z,67.88
2018-07-14T12:56:10.202Z,67.4
2018-07-14T12:57:19.075Z,68.47
2018-07-14T12:58:27.949Z,68.08
2018-07-14T12:59:36.821Z,67.21
2018-07-14T13:00:45.690Z,66.24
2018-07-14T13:01:54.664Z,67.69
2018-07-14T13:03:04.094Z,66.34
2018-07-14T13:04:12.968Z,66.47
2018-07-14T13:05:21.842Z,66.17
2018-07-14T13:06:30.792Z,66.14
2018-07-14T13:07:41.136Z,66.14
2018-07-14T13:08:49.977Z,64.98
2018-07-14T13:09:58.849Z,64.89
2018-07-14T13:11:08.012Z,66.17
2018-07-14T13:12:16.882Z,65.69
2018-07-14T13:13:25.755Z,63.95
2018-07-14T13:14:34.903Z,64.17
2018-07-14T13:15:43.775Z,63.95
2018-07-14T13:16:52.651Z,65.11
2018-07-14T13:18:01.530Z,65.2
2018-07-14T13:19:10.680Z,65.59
2018-07-14T13:20:19.553Z,65.69
2018-07-14T13:21:28.425Z,65.01
2018-07-14T13:22:37.580Z,65.01
2018-07-14T13:23:46.450Z,66.56
2018-07-14T13:24:55.694Z,65.08
2018-07-14T13:26:05.125Z,65.01
2018-07-14T13:27:13.997Z,65.08
2018-07-14T13:28:22.871Z,64.89
2018-07-14T13:29:31.741Z,64.89
2018-07-14T13:30:40.712Z,65.56
2018-07-14T13:31:49.586Z,64.98
2018-07-14T13:32:58.738Z,64.98
2018-07-14T13:34:07.609Z,66.05
2018-07-14T13:35:16.761Z,64.2
2018-07-14T13:36:25.881Z,65.75
2018-07-14T13:37:34.658Z,63.37
2018-07-14T13:38:51.265Z,63.07
2018-07-14T13:39:58.900Z,64.07
2018-07-14T13:41:08.334Z,63.1
2018-07-14T13:42:17.354Z,63.69
2018-07-14T13:43:26.503Z,63.49
2018-07-14T13:44:35.378Z,63.4
2018-07-14T13:45:44.527Z,63.78
2018-07-14T13:46:53.671Z,63.88
2018-07-14T13:48:02.823Z,65.43
2018-07-14T13:49:11.696Z,64.56
2018-07-14T13:50:20.568Z,64.37
2018-07-14T13:51:29.439Z,64.17
2018-07-14T13:52:38.313Z,63.85
2018-07-14T13:53:47.610Z,63.37
2018-07-14T13:54:56.485Z,64.24
2018-07-14T13:56:05.352Z,64.53
2018-07-14T13:57:14.497Z,64.2
2018-07-14T13:58:23.642Z,64.4
2018-07-14T13:59:32.510Z,65.37
2018-07-14T14:00:41.662Z,65.17
2018-07-14T14:01:50.531Z,66.14
2018-07-14T14:02:59.401Z,66.92
2018-07-14T14:04:08.271Z,66.05
2018-07-14T14:05:17.290Z,66.34
2018-07-14T14:06:26.446Z,65.95
2018-07-14T14:07:35.322Z,65.4
2018-07-14T14:08:44.190Z,65.98
2018-07-14T14:09:53.064Z,65.43
2018-07-14T14:11:01.945Z,64.37
2018-07-14T14:12:10.814Z,62.95
2018-07-14T14:13:19.689Z,61
2018-07-14T14:14:28.838Z,60.94
2018-07-14T14:15:37.709Z,59.19
2018-07-14T14:16:46.582Z,58.83
2018-07-14T14:17:55.457Z,59.9
2018-07-14T14:19:04.341Z,59.22
2018-07-14T14:20:13.497Z,61.52
2018-07-14T14:21:22.654Z,60.94
2018-07-14T14:22:31.526Z,61.52
2018-07-14T14:23:40.398Z,62.19
2018-07-14T14:24:49.271Z,62.85
2018-07-14T14:25:58.144Z,63.04
2018-07-14T14:27:07.018Z,63.69
2018-07-14T14:28:16.318Z,64.37
2018-07-14T14:29:25.475Z,63.88
2018-07-14T14:30:34.341Z,64.95
2018-07-14T14:31:43.489Z,64.95
2018-07-14T14:32:52.639Z,64.65
2018-07-14T14:34:01.656Z,65.69
2018-07-14T14:35:10.527Z,65.4
2018-07-14T14:36:19.447Z,66.17
2018-07-14T14:37:28.317Z,66.05
2018-07-14T14:38:37.183Z,66.43
2018-07-14T14:39:46.677Z,66.63
2018-07-14T14:40:55.545Z,66.82
2018-07-14T14:42:04.415Z,67.6
2018-07-14T14:43:13.283Z,67.02
2018-07-14T14:44:22.434Z,67.02
2018-07-14T14:45:31.655Z,67.21
2018-07-14T14:46:40.525Z,67.11
2018-07-14T14:47:49.395Z,67.11
2018-07-14T14:48:58.263Z,68.66
2018-07-14T14:50:07.131Z,67.79
2018-07-14T14:51:16.000Z,67.3
2018-07-14T14:52:24.875Z,67.21